Time;durP1;ratioP1;P1;durP2;ratioP2;P2;SDS_P1;SDS_P2;PMS_P1;PMS_P2;Temp;Humidity;BMP_temperature;BMP_pressure;BME280_temperature;BME280_humidity;BME280_pressure;Samples;Min_cycle;Max_cycle;Signal;HPM_P1;HPM_P2
2023/08/03 00:01:26;;;;;;;;;;;;;;;;;;5048349;28;19948;-71
2023/08/03 00:03:53;;;;;;;;;;;;;;;;;;5050998;28;19982;-70
2023/08/03 00:06:20;;;;;;;;;;;;;;;;;;5047743;28;19925;-70
2023/08/03 00:08:47;;;;;;;;;;;;;;;;;;5055632;28;19986;-70
2023/08/03 00:11:14;;;;;;;;;;;;;;;;;;5049618;28;19978;-71
2023/08/03 00:13:41;;;;;;;;;;;;;;;;;;5052565;28;19986;-70
2023/08/03 00:16:08;;;;;;;;;;;;;;;;;;5052948;28;19986;-70
2023/08/03 00:18:35;;;;;;;;;;;;;;;;;;5052272;28;19924;-70
2023/08/03 00:21:04;;;;;;;;;;;;;;;;;;5050369;28;21020;-70
2023/08/03 00:23:31;;;;;;;;;;;;;;;;;;5049675;28;19925;-70
2023/08/03 00:25:58;;;;;;;;;;;;;;;;;;5035735;28;19982;-70
2023/08/03 00:28:25;;;;;;;;;;;;;;;;;;5052524;28;20372;-71
2023/08/03 00:30:52;;;;;;;;;;;;;;;;;;5051425;28;19925;-71
2023/08/03 00:33:19;;;;;;;;;;;;;;;;;;5051319;28;19925;-71
2023/08/03 00:35:46;;;;;;;;;;;;;;;;;;5052164;28;19929;-71
2023/08/03 00:38:13;;;;;;;;;;;;;;;;;;5052468;28;19925;-71
2023/08/03 00:40:40;;;;;;;;;;;;;;;;;;5050133;28;19925;-71
2023/08/03 00:43:07;;;;;;;;;;;;;;;;;;5050169;28;19928;-71
2023/08/03 00:45:34;;;;;;;;;;;;;;;;;;5050642;28;19925;-71
2023/08/03 00:48:01;;;;;;;;;;;;;;;;;;5052069;28;19932;-71
2023/08/03 00:50:28;;;;;;;;;;;;;;;;;;5051724;28;20376;-71
2023/08/03 00:52:55;;;;;;;;;;;;;;;;;;5048237;28;19925;-70
2023/08/03 00:55:22;;;;;;;;;;;;;;;;;;5035536;28;20343;-71
2023/08/03 00:57:49;;;;;;;;;;;;;;;;;;5051661;28;19932;-71
2023/08/03 01:00:16;;;;;;;;;;;;;;;;;;5050028;28;19925;-70
2023/08/03 01:02:43;;;;;;;;;;;;;;;;;;5051074;28;19928;-71
2023/08/03 01:05:10;;;;;;;;;;;;;;;;;;5050737;28;19933;-70
2023/08/03 01:07:37;;;;;;;;;;;;;;;;;;5052020;28;19925;-71
2023/08/03 01:10:04;;;;;;;;;;;;;;;;;;5055538;28;19995;-72
2023/08/03 01:12:31;;;;;;;;;;;;;;;;;;5045122;28;19964;-71
2023/08/03 01:14:58;;;;;;;;;;;;;;;;;;5061180;28;19928;-70
2023/08/03 01:17:25;;;;;;;;;;;;;;;;;;5057988;28;19974;-71
2023/08/03 01:19:52;;;;;;;;;;;;;;;;;;5050054;28;19924;-71
2023/08/03 01:22:19;;;;;;;;;;;;;;;;;;5051077;28;19994;-71
2023/08/03 01:24:46;;;;;;;;;;;;;;;;;;5050101;28;19925;-71
2023/08/03 01:27:13;;;;;;;;;;;;;;;;;;5050358;28;19925;-70
2023/08/03 01:29:40;;;;;;;;;;;;;;;;;;5046403;28;19933;-70
2023/08/03 01:32:07;;;;;;;;;;;;;;;;;;5034130;28;19928;-71
2023/08/03 01:34:34;;;;;;;;;;;;;;;;;;5044099;28;19928;-71
2023/08/03 01:37:01;;;;;;;;;;;;;;;;;;5051759;28;20399;-70
2023/08/03 01:39:28;;;;;;;;;;;;;;;;;;5051074;28;19929;-70
2023/08/03 01:41:55;;;;;;;;;;;;;;;;;;5049132;28;19925;-70
2023/08/03 01:44:21;;;;;;;;;;;;;;;;;;5050756;28;19925;-70
2023/08/03 01:46:48;;;;;;;;;;;;;;;;;;5047173;28;19925;-71
2023/08/03 01:49:15;;;;;;;;;;;;;;;;;;5047507;28;21094;-71
2023/08/03 01:51:42;;;;;;;;;;;;;;;;;;5050630;28;19967;-71
2023/08/03 01:54:09;;;;;;;;;;;;;;;;;;5050584;28;19947;-72
2023/08/03 01:56:36;;;;;;;;;;;;;;;;;;5051729;28;19978;-71
2023/08/03 01:59:03;;;;;;;;;;;;;;;;;;5056042;28;20384;-69
2023/08/03 02:01:30;;;;;;;;;;;;;;;;;;5049352;28;19978;-69
2023/08/03 02:03:57;;;;;;;;;;;;;;;;;;5047048;28;19925;-71
2023/08/03 02:06:24;;;;;;;;;;;;;;;;;;5049747;28;19925;-71
2023/08/03 02:08:51;;;;;;;;;;;;;;;;;;5051315;28;19928;-71
2023/08/03 02:11:19;;;;;;;;;;;;;;;;;;5048918;28;19924;-71
2023/08/03 02:13:46;;;;;;;;;;;;;;;;;;5050042;28;19999;-71
2023/08/03 02:16:13;;;;;;;;;;;;;;;;;;5048818;28;19924;-71
2023/08/03 02:18:41;;;;;;;;;;;;;;;;;;5049056;28;20408;-70
2023/08/03 02:21:08;;;;;;;;;;;;;;;;;;5049887;28;20011;-70
2023/08/03 02:23:35;;;;;;;;;;;;;;;;;;5047959;28;19925;-71
2023/08/03 02:26:03;;;;;;;;;;;;;;;;;;5048134;28;20372;-70
2023/08/03 02:28:31;;;;;;;;;;;;;;;;;;5050115;28;19925;-70
2023/08/03 02:30:58;;;;;;;;;;;;;;;;;;5031533;28;19999;-70
2023/08/03 02:33:25;;;;;;;;;;;;;;;;;;5043044;28;19925;-70
2023/08/03 02:35:53;;;;;;;;;;;;;;;;;;5050860;28;19925;-71
2023/08/03 02:38:20;;;;;;;;;;;;;;;;;;5054548;28;20027;-70
2023/08/03 02:40:47;;;;;;;;;;;;;;;;;;5052153;28;20443;-71
2023/08/03 02:45:56;;;;;;;;;;;;;;;;;;5051503;28;20054;-70
2023/08/03 02:48:23;;;;;;;;;;;;;;;;;;5053517;28;19925;-70
2023/08/03 02:50:50;;;;;;;;;;;;;;;;;;5050489;28;20584;-70
2023/08/03 02:53:18;;;;;;;;;;;;;;;;;;5054491;28;19991;-71
2023/08/03 02:55:45;;;;;;;;;;;;;;;;;;5051999;28;20372;-70
2023/08/03 02:58:12;;;;;;;;;;;;;;;;;;5053467;28;19939;-70
2023/08/03 03:00:40;;;;;;;;;;;;;;;;;;5048038;28;19924;-70
2023/08/03 03:03:07;;;;;;;;;;;;;;;;;;5054516;28;20396;-70
2023/08/03 03:05:39;;;;;;;;;;;;;;;;;;5046675;28;19925;-70
2023/08/03 03:08:07;;;;;;;;;;;;;;;;;;5063142;28;19924;-70
2023/08/03 03:10:34;;;;;;;;;;;;;;;;;;5051783;28;20431;-70
2023/08/03 03:13:01;;;;;;;;;;;;;;;;;;5051025;28;19925;-70
2023/08/03 03:15:28;;;;;;;;;;;;;;;;;;5051398;28;20315;-70
2023/08/03 03:17:54;;;;;;;;;;;;;;;;;;5050131;28;19991;-70
2023/08/03 03:20:21;;;;;;;;;;;;;;;;;;5049206;28;20432;-71
2023/08/03 03:22:48;;;;;;;;;;;;;;;;;;5052080;28;19925;-71
2023/08/03 03:25:15;;;;;;;;;;;;;;;;;;5052461;28;19929;-70
2023/08/03 03:27:42;;;;;;;;;;;;;;;;;;5053295;28;20343;-70
2023/08/03 03:30:09;;;;;;;;;;;;;;;;;;5051605;28;19932;-70
2023/08/03 03:32:36;;;;;;;;;;;;;;;;;;5049776;28;20015;-70
2023/08/03 03:35:03;;;;;;;;;;;;;;;;;;5052229;28;19928;-70
2023/08/03 03:37:31;;;;;;;;;;;;;;;;;;5050751;28;19924;-70
2023/08/03 03:39:58;;;;;;;;;;;;;;;;;;5050147;28;19924;-70
2023/08/03 03:42:25;;;;;;;;;;;;;;;;;;5050688;28;19978;-69
2023/08/03 03:44:52;;;;;;;;;;;;;;;;;;5047186;28;20098;-70
2023/08/03 03:47:19;;;;;;;;;;;;;;;;;;5047621;28;19932;-70
2023/08/03 03:49:47;;;;;;;;;;;;;;;;;;5051213;28;19996;-70
2023/08/03 03:52:14;;;;;;;;;;;;;;;;;;5052910;28;19982;-69
2023/08/03 03:54:41;;;;;;;;;;;;;;;;;;5051046;28;20066;-70
2023/08/03 03:57:08;;;;;;;;;;;;;;;;;;5053254;28;19978;-69
2023/08/03 03:59:35;;;;;;;;;;;;;;;;;;5071362;28;19978;-70
2023/08/03 04:02:02;;;;;;;;;;;;;;;;;;5058945;28;20318;-70
2023/08/03 04:04:29;;;;;;;;;;;;;;;;;;5049815;28;19924;-70
2023/08/03 04:06:56;;;;;;;;;;;;;;;;;;5051448;28;20403;-69
2023/08/03 04:09:23;;;;;;;;;;;;;;;;;;5052456;28;19924;-70
2023/08/03 04:11:50;;;;;;;;;;;;;;;;;;5041308;28;20454;-70
2023/08/03 04:14:17;;;;;;;;;;;;;;;;;;5044676;28;19960;-69
2023/08/03 04:16:44;;;;;;;;;;;;;;;;;;5037427;28;19959;-71
2023/08/03 04:19:11;;;;;;;;;;;;;;;;;;5046592;28;19925;-72
2023/08/03 04:21:38;;;;;;;;;;;;;;;;;;5048504;28;19947;-71
2023/08/03 04:24:05;;;;;;;;;;;;;;;;;;5050099;28;19974;-71
2023/08/03 04:26:32;;;;;;;;;;;;;;;;;;5047256;28;19925;-71
2023/08/03 04:28:59;;;;;;;;;;;;;;;;;;5032327;28;19925;-71
2023/08/03 04:31:27;;;;;;;;;;;;;;;;;;5038098;28;20352;-71
2023/08/03 04:33:54;;;;;;;;;;;;;;;;;;5043215;28;20453;-71
2023/08/03 04:36:21;;;;;;;;;;;;;;;;;;5050064;28;19955;-70
2023/08/03 04:38:48;;;;;;;;;;;;;;;;;;5051674;28;20261;-69
2023/08/03 04:41:16;;;;;;;;;;;;;;;;;;5048604;28;19940;-71
2023/08/03 04:43:43;;;;;;;;;;;;;;;;;;5035789;28;19979;-71
2023/08/03 04:46:10;;;;;;;;;;;;;;;;;;5049610;28;20393;-70
2023/08/03 04:48:38;;;;;;;;;;;;;;;;;;5048794;28;19928;-71
2023/08/03 04:51:06;;;;;;;;;;;;;;;;;;5049582;28;20007;-71
2023/08/03 04:53:33;;;;;;;;;;;;;;;;;;5050902;28;19929;-71
2023/08/03 04:56:00;;;;;;;;;;;;;;;;;;5049397;28;19941;-72
2023/08/03 04:58:27;;;;;;;;;;;;;;;;;;5050123;28;19925;-74
2023/08/03 05:00:54;;;;;;;;;;;;;;;;;;5042725;28;20395;-71
2023/08/03 05:03:21;;;;;;;;;;;;;;;;;;5046875;28;19933;-72
2023/08/03 05:05:48;;;;;;;;;;;;;;;;;;5048226;28;19971;-71
2023/08/03 05:08:15;;;;;;;;;;;;;;;;;;5051595;28;19936;-71
2023/08/03 05:10:42;;;;;;;;;;;;;;;;;;5036715;28;20028;-71
2023/08/03 05:13:09;;;;;;;;;;;;;;;;;;5049991;28;19925;-71
2023/08/03 05:15:36;;;;;;;;;;;;;;;;;;5052224;28;20354;-71
2023/08/03 05:18:04;;;;;;;;;;;;;;;;;;5052011;28;19928;-70
2023/08/03 05:20:31;;;;;;;;;;;;;;;;;;5048253;28;20015;-70
2023/08/03 05:22:58;;;;;;;;;;;;;;;;;;5051394;28;20023;-69
2023/08/03 05:25:25;;;;;;;;;;;;;;;;;;5050015;28;19925;-69
2023/08/03 05:27:52;;;;;;;;;;;;;;;;;;5039036;28;20372;-70
2023/08/03 05:30:19;;;;;;;;;;;;;;;;;;5049322;28;19925;-71
2023/08/03 05:32:46;;;;;;;;;;;;;;;;;;5051671;28;19978;-71
2023/08/03 05:35:14;;;;;;;;;;;;;;;;;;5050508;28;19925;-70
2023/08/03 05:37:41;;;;;;;;;;;;;;;;;;5049795;28;19932;-70
2023/08/03 05:40:08;;;;;;;;;;;;;;;;;;5051109;28;19925;-70
2023/08/03 05:42:35;;;;;;;;;;;;;;;;;;5050965;28;20280;-70
2023/08/03 05:45:03;;;;;;;;;;;;;;;;;;5048976;28;20394;-71
2023/08/03 05:47:30;;;;;;;;;;;;;;;;;;5041217;28;19925;-71
2023/08/03 05:49:57;;;;;;;;;;;;;;;;;;5049347;28;19929;-71
2023/08/03 05:52:24;;;;;;;;;;;;;;;;;;5041675;28;19925;-71
2023/08/03 05:54:51;;;;;;;;;;;;;;;;;;5047739;28;20609;-70
2023/08/03 05:57:18;;;;;;;;;;;;;;;;;;5048413;28;19924;-71
2023/08/03 05:59:45;;;;;;;;;;;;;;;;;;5051163;28;19944;-70
2023/08/03 06:02:12;;;;;;;;;;;;;;;;;;5047373;28;19964;-70
2023/08/03 06:04:39;;;;;;;;;;;;;;;;;;5042046;28;19986;-70
2023/08/03 06:07:06;;;;;;;;;;;;;;;;;;5049897;28;19925;-70
2023/08/03 06:09:33;;;;;;;;;;;;;;;;;;5051118;28;19986;-70
2023/08/03 06:12:00;;;;;;;;;;;;;;;;;;5051999;28;20277;-69
2023/08/03 06:14:27;;;;;;;;;;;;;;;;;;5052693;28;19986;-71
2023/08/03 06:16:56;;;;;;;;;;;;;;;;;;5052863;28;19963;-71
2023/08/03 06:19:23;;;;;;;;;;;;;;;;;;5052747;28;19931;-70
2023/08/03 06:21:50;;;;;;;;;;;;;;;;;;5048093;28;20360;-71
2023/08/03 06:24:17;;;;;;;;;;;;;;;;;;5053158;28;19925;-70
2023/08/03 06:26:44;;;;;;;;;;;;;;;;;;5052820;28;19947;-71
2023/08/03 06:29:11;;;;;;;;;;;;;;;;;;5053951;28;20302;-70
2023/08/03 06:31:39;;;;;;;;;;;;;;;;;;5051003;28;19972;-71
2023/08/03 06:34:06;;;;;;;;;;;;;;;;;;5053021;28;19976;-71
2023/08/03 06:36:33;;;;;;;;;;;;;;;;;;5047592;28;19987;-71
2023/08/03 06:39:00;;;;;;;;;;;;;;;;;;5047165;28;19925;-71
2023/08/03 06:41:27;;;;;;;;;;;;;;;;;;5053926;28;19924;-71
2023/08/03 06:43:54;;;;;;;;;;;;;;;;;;5052151;28;19990;-71
2023/08/03 06:46:21;;;;;;;;;;;;;;;;;;5051411;28;19925;-71
2023/08/03 06:48:48;;;;;;;;;;;;;;;;;;5055885;28;19925;-72
2023/08/03 06:51:15;;;;;;;;;;;;;;;;;;5040482;28;20443;-72
2023/08/03 06:53:42;;;;;;;;;;;;;;;;;;5047242;28;19936;-70
2023/08/03 06:56:10;;;;;;;;;;;;;;;;;;5053052;28;19928;-70
2023/08/03 06:58:37;;;;;;;;;;;;;;;;;;5041176;28;20272;-70
2023/08/03 07:01:04;;;;;;;;;;;;;;;;;;5039667;28;19932;-71
2023/08/03 07:03:31;;;;;;;;;;;;;;;;;;5052035;28;19925;-71
2023/08/03 07:05:58;;;;;;;;;;;;;;;;;;5061958;28;19925;-70
2023/08/03 07:08:25;;;;;;;;;;;;;;;;;;5052805;28;19975;-70
2023/08/03 07:10:52;;;;;;;;;;;;;;;;;;5045956;28;20026;-69
2023/08/03 07:13:19;;;;;;;;;;;;;;;;;;5051897;28;19987;-71
2023/08/03 07:15:46;;;;;;;;;;;;;;;;;;5050134;28;19925;-71
2023/08/03 07:18:13;;;;;;;;;;;;;;;;;;5045709;28;20462;-70
2023/08/03 07:20:40;;;;;;;;;;;;;;;;;;5052064;28;19979;-71
2023/08/03 07:23:07;;;;;;;;;;;;;;;;;;5052826;28;20392;-70
2023/08/03 07:25:34;;;;;;;;;;;;;;;;;;5052202;28;19931;-70
2023/08/03 07:28:01;;;;;;;;;;;;;;;;;;5050112;28;20257;-70
2023/08/03 07:30:28;;;;;;;;;;;;;;;;;;5053085;28;19986;-70
2023/08/03 07:32:57;;;;;;;;;;;;;;;;;;5047948;28;19925;-71
2023/08/03 07:35:24;;;;;;;;;;;;;;;;;;5040749;28;20020;-71
2023/08/03 07:37:51;;;;;;;;;;;;;;;;;;5049815;28;19929;-71
2023/08/03 07:40:18;;;;;;;;;;;;;;;;;;5045802;28;19931;-71
2023/08/03 07:42:45;;;;;;;;;;;;;;;;;;5043820;28;19943;-71
2023/08/03 07:45:12;;;;;;;;;;;;;;;;;;5046561;28;19925;-71
2023/08/03 07:47:39;;;;;;;;;;;;;;;;;;5049525;28;19933;-71
2023/08/03 07:50:06;;;;;;;;;;;;;;;;;;5050832;28;20388;-71
2023/08/03 07:52:33;;;;;;;;;;;;;;;;;;5045635;28;19925;-71
2023/08/03 07:55:00;;;;;;;;;;;;;;;;;;5053223;28;19967;-71
2023/08/03 07:57:28;;;;;;;;;;;;;;;;;;5058520;28;19933;-71
2023/08/03 07:59:55;;;;;;;;;;;;;;;;;;5050801;22;21974;-71
2023/08/03 08:02:22;;;;;;;;;;;;;;;;;;5009828;28;19929;-71
2023/08/03 08:04:49;;;;;;;;;;;;;;;;;;5003442;28;19926;-72
2023/08/03 08:07:16;;;;;;;;;;;;;;;;;;5008088;28;21904;-72
2023/08/03 08:09:43;;;;;;;;;;;;;;;;;;5000699;28;20249;-72
2023/08/03 08:12:11;;;;;;;;;;;;;;;;;;5011898;28;19949;-66
2023/08/03 08:14:38;;;;;;;;;;;;;;;;;;5010924;28;19925;-71
2023/08/03 08:17:05;;;;;;;;;;;;;;;;;;5009919;28;20274;-74
2023/08/03 08:19:32;;;;;;;;;;;;;;;;;;5017734;28;19925;-71
2023/08/03 08:21:59;;;;;;;;;;;;;;;;;;5014703;28;19933;-71
2023/08/03 08:24:26;;;;;;;;;;;;;;;;;;5008397;28;20027;-71
2023/08/03 08:26:53;;;;;;;;;;;;;;;;;;5009072;28;19926;-71
2023/08/03 08:29:20;;;;;;;;;;;;;;;;;;5009209;28;19925;-72
2023/08/03 08:31:49;;;;;;;;;;;;;;;;;;5003008;28;20340;-71
2023/08/03 08:34:16;;;;;;;;;;;;;;;;;;5007536;28;19931;-69
2023/08/03 08:36:44;;;;;;;;;;;;;;;;;;5008745;28;19972;-71
2023/08/03 08:39:11;;;;;;;;;;;;;;;;;;5001227;28;20017;-71
2023/08/03 08:41:38;;;;;;;;;;;;;;;;;;5005336;28;19932;-70
2023/08/03 08:44:05;;;;;;;;;;;;;;;;;;5009691;28;19926;-70
2023/08/03 08:46:32;;;;;;;;;;;;;;;;;;5003276;28;19997;-69
2023/08/03 08:48:59;;;;;;;;;;;;;;;;;;5006907;28;19925;-70
2023/08/03 08:51:26;;;;;;;;;;;;;;;;;;5004668;28;20339;-70
2023/08/03 08:53:53;;;;;;;;;;;;;;;;;;5009872;28;19936;-71
2023/08/03 08:56:20;;;;;;;;;;;;;;;;;;5011793;28;19976;-71
2023/08/03 08:58:48;;;;;;;;;;;;;;;;;;4999707;28;19965;-71
2023/08/03 09:01:15;;;;;;;;;;;;;;;;;;5003023;28;19972;-71
2023/08/03 09:03:42;;;;;;;;;;;;;;;;;;5004573;28;19925;-71
2023/08/03 09:06:10;;;;;;;;;;;;;;;;;;5000606;28;19934;-69
2023/08/03 09:08:37;;;;;;;;;;;;;;;;;;5006593;28;19941;-70
2023/08/03 09:11:04;;;;;;;;;;;;;;;;;;5010523;28;19930;-70
2023/08/03 09:13:31;;;;;;;;;;;;;;;;;;5010758;28;19933;-62
2023/08/03 09:15:58;;;;;;;;;;;;;;;;;;5013938;28;19929;-71
2023/08/03 09:18:27;;;;;;;;;;;;;;;;;;5011469;28;20511;-70
2023/08/03 09:20:54;;;;;;;;;;;;;;;;;;5008833;28;19925;-72
2023/08/03 09:23:21;;;;;;;;;;;;;;;;;;5007106;28;19934;-69
2023/08/03 09:25:48;;;;;;;;;;;;;;;;;;5009538;28;20028;-71
2023/08/03 09:28:15;;;;;;;;;;;;;;;;;;5008408;28;19930;-70
2023/08/03 09:30:42;;;;;;;;;;;;;;;;;;5006771;28;19976;-70
2023/08/03 09:33:09;;;;;;;;;;;;;;;;;;5005693;28;20008;-70
2023/08/03 09:35:36;;;;;;;;;;;;;;;;;;5009081;28;19930;-70
2023/08/03 09:38:03;;;;;;;;;;;;;;;;;;5010415;28;20089;-71
2023/08/03 09:40:30;;;;;;;;;;;;;;;;;;5004599;28;19988;-71
2023/08/03 09:42:57;;;;;;;;;;;;;;;;;;5004426;28;19925;-71
2023/08/03 09:45:24;;;;;;;;;;;;;;;;;;5006644;28;20011;-71
2023/08/03 09:47:51;;;;;;;;;;;;;;;;;;5015242;28;20435;-72
2023/08/03 09:50:18;;;;;;;;;;;;;;;;;;5012095;28;19926;-71
2023/08/03 09:52:46;;;;;;;;;;;;;;;;;;5001617;28;20017;-70
2023/08/03 09:55:18;;;;;;;;;;;;;;;;;;5008035;28;19930;-70
2023/08/03 09:57:45;;;;;;;;;;;;;;;;;;5006749;28;19934;-71
2023/08/03 10:00:15;;;;;;;;;;;;;;;;;;5012144;28;19991;-70
2023/08/03 10:02:42;;;;;;;;;;;;;;;;;;5008361;28;19979;-72
2023/08/03 10:05:09;;;;;;;;;;;;;;;;;;5010390;28;20301;-69
2023/08/03 10:07:36;;;;;;;;;;;;;;;;;;4996003;28;19992;-70
2023/08/03 10:10:04;;;;;;;;;;;;;;;;;;4997845;28;19930;-69
2023/08/03 10:12:31;;;;;;;;;;;;;;;;;;5003549;28;20003;-69
2023/08/03 10:14:58;;;;;;;;;;;;;;;;;;5005747;28;19971;-70
2023/08/03 10:17:25;;;;;;;;;;;;;;;;;;5002147;28;20308;-69
2023/08/03 10:19:53;;;;;;;;;;;;;;;;;;5003524;28;19933;-71
2023/08/03 10:22:20;;;;;;;;;;;;;;;;;;5001849;28;19932;-70
2023/08/03 10:24:47;;;;;;;;;;;;;;;;;;5000278;28;19933;-70
2023/08/03 10:27:14;;;;;;;;;;;;;;;;;;4998733;28;20019;-70
2023/08/03 10:29:41;;;;;;;;;;;;;;;;;;5003013;28;20231;-69
2023/08/03 10:32:10;;;;;;;;;;;;;;;;;;4997358;28;19938;-70
2023/08/03 10:34:39;;;;;;;;;;;;;;;;;;5000055;28;19972;-70
2023/08/03 10:37:06;;;;;;;;;;;;;;;;;;5001750;28;20457;-72
2023/08/03 10:39:33;;;;;;;;;;;;;;;;;;5006258;28;20393;-71
2023/08/03 10:42:01;;;;;;;;;;;;;;;;;;5005256;28;19926;-70
2023/08/03 10:44:28;;;;;;;;;;;;;;;;;;5009722;28;19967;-71
2023/08/03 10:46:56;;;;;;;;;;;;;;;;;;5006465;28;19932;-71
2023/08/03 10:49:24;;;;;;;;;;;;;;;;;;5007928;28;19976;-69
2023/08/03 10:51:51;;;;;;;;;;;;;;;;;;5004568;28;19933;-70
2023/08/03 10:54:18;;;;;;;;;;;;;;;;;;5010694;28;20008;-69
2023/08/03 10:56:45;;;;;;;;;;;;;;;;;;5005336;28;19925;-70
2023/08/03 10:59:12;;;;;;;;;;;;;;;;;;5012050;28;19932;-70
2023/08/03 11:01:39;;;;;;;;;;;;;;;;;;5014167;28;19979;-69
2023/08/03 11:04:06;;;;;;;;;;;;;;;;;;5013055;28;20044;-70
2023/08/03 11:06:33;;;;;;;;;;;;;;;;;;5013152;28;19932;-69
2023/08/03 11:09:00;;;;;;;;;;;;;;;;;;5014408;28;19933;-70
2023/08/03 11:11:32;;;;;;;;;;;;;;;;;;5005491;28;19926;-70
2023/08/03 11:13:59;;;;;;;;;;;;;;;;;;5007260;28;20278;-70
2023/08/03 11:16:26;;;;;;;;;;;;;;;;;;5011798;28;19926;-70
2023/08/03 11:18:53;;;;;;;;;;;;;;;;;;5013286;28;19934;-69
2023/08/03 11:21:20;;;;;;;;;;;;;;;;;;5012312;28;19926;-69
2023/08/03 11:23:47;;;;;;;;;;;;;;;;;;5012109;28;19926;-69
2023/08/03 11:26:14;;;;;;;;;;;;;;;;;;5012410;28;19975;-70
2023/08/03 11:28:44;;;;;;;;;;;;;;;;;;5006729;28;19925;-70
2023/08/03 11:31:11;;;;;;;;;;;;;;;;;;5010921;28;20456;-70
2023/08/03 11:33:39;;;;;;;;;;;;;;;;;;5004230;28;19948;-71
2023/08/03 11:36:06;;;;;;;;;;;;;;;;;;4997595;28;20296;-70
2023/08/03 11:38:33;;;;;;;;;;;;;;;;;;5000077;28;20004;-71
2023/08/03 11:41:00;;;;;;;;;;;;;;;;;;5005937;28;20483;-69
2023/08/03 11:43:27;;;;;;;;;;;;;;;;;;5002219;28;20104;-67
2023/08/03 11:45:54;;;;;;;;;;;;;;;;;;4999998;28;19936;-69
2023/08/03 11:48:21;;;;;;;;;;;;;;;;;;5007745;28;19972;-70
2023/08/03 11:50:57;;;;;;;;;;;;;;;;;;5010263;28;19971;-70
2023/08/03 11:53:24;;;;;;;;;;;;;;;;;;5007856;28;19925;-70
2023/08/03 11:55:51;;;;;;;;;;;;;;;;;;5009156;28;19925;-69
2023/08/03 11:58:18;;;;;;;;;;;;;;;;;;5006748;28;19925;-70
2023/08/03 12:00:45;;;;;;;;;;;;;;;;;;5006230;28;19926;-70
2023/08/03 12:03:12;;;;;;;;;;;;;;;;;;5009160;28;19972;-70
2023/08/03 12:05:39;;;;;;;;;;;;;;;;;;5003090;28;19940;-69
2023/08/03 12:08:06;;;;;;;;;;;;;;;;;;5008193;28;19988;-71
2023/08/03 12:10:33;;;;;;;;;;;;;;;;;;5004343;28;19929;-71
2023/08/03 12:13:01;;;;;;;;;;;;;;;;;;5000135;28;19944;-70
2023/08/03 12:15:28;;;;;;;;;;;;;;;;;;4999657;28;20411;-70
2023/08/03 12:17:55;;;;;;;;;;;;;;;;;;5008037;28;19934;-69
2023/08/03 12:20:22;;;;;;;;;;;;;;;;;;5004568;28;19926;-70
2023/08/03 12:22:49;;;;;;;;;;;;;;;;;;5006157;28;20332;-71
2023/08/03 12:25:16;;;;;;;;;;;;;;;;;;5002225;28;19929;-70
2023/08/03 12:27:43;;;;;;;;;;;;;;;;;;5003065;28;19943;-70
2023/08/03 12:30:10;;;;;;;;;;;;;;;;;;5007259;28;19925;-70
2023/08/03 12:32:37;;;;;;;;;;;;;;;;;;5006750;28;19926;-71
2023/08/03 12:35:04;;;;;;;;;;;;;;;;;;4997915;28;20666;-69
2023/08/03 12:37:32;;;;;;;;;;;;;;;;;;4995154;28;19925;-71
2023/08/03 12:39:59;;;;;;;;;;;;;;;;;;4999857;28;20384;-71
2023/08/03 12:42:26;;;;;;;;;;;;;;;;;;5002222;28;19929;-71
2023/08/03 12:44:53;;;;;;;;;;;;;;;;;;5003597;28;19965;-70
2023/08/03 12:47:20;;;;;;;;;;;;;;;;;;5004609;28;19933;-70
2023/08/03 12:49:47;;;;;;;;;;;;;;;;;;5000751;28;19933;-71
2023/08/03 12:52:14;;;;;;;;;;;;;;;;;;5000773;28;20381;-71
2023/08/03 12:54:42;;;;;;;;;;;;;;;;;;5001812;28;19960;-71
2023/08/03 12:57:09;;;;;;;;;;;;;;;;;;4999054;28;20017;-71
2023/08/03 12:59:36;;;;;;;;;;;;;;;;;;5002613;28;19937;-71
2023/08/03 13:02:03;;;;;;;;;;;;;;;;;;5003503;28;19926;-71
2023/08/03 13:04:30;;;;;;;;;;;;;;;;;;5000393;28;19925;-71
2023/08/03 13:06:57;;;;;;;;;;;;;;;;;;5000739;28;19934;-70
2023/08/03 13:09:24;;;;;;;;;;;;;;;;;;4996504;28;20507;-71
2023/08/03 13:11:51;;;;;;;;;;;;;;;;;;4997896;28;19956;-70
2023/08/03 13:14:18;;;;;;;;;;;;;;;;;;5002068;28;19929;-70
2023/08/03 13:16:47;;;;;;;;;;;;;;;;;;4999980;28;19991;-71
2023/08/03 13:19:14;;;;;;;;;;;;;;;;;;4999414;28;19925;-70
2023/08/03 13:21:41;;;;;;;;;;;;;;;;;;5000212;28;19933;-71
2023/08/03 13:24:08;;;;;;;;;;;;;;;;;;4999289;28;19941;-70
2023/08/03 13:26:35;;;;;;;;;;;;;;;;;;5000033;28;20554;-70
2023/08/03 13:29:02;;;;;;;;;;;;;;;;;;4997002;28;20779;-71
2023/08/03 13:31:31;;;;;;;;;;;;;;;;;;4998595;28;20316;-71
2023/08/03 13:33:58;;;;;;;;;;;;;;;;;;5002337;28;20496;-70
2023/08/03 13:36:27;;;;;;;;;;;;;;;;;;4998836;28;19933;-70
2023/08/03 13:38:54;;;;;;;;;;;;;;;;;;5002802;28;20392;-71
2023/08/03 13:41:22;;;;;;;;;;;;;;;;;;5001556;28;19925;-70
2023/08/03 13:43:49;;;;;;;;;;;;;;;;;;5002631;28;19926;-69
2023/08/03 13:46:16;;;;;;;;;;;;;;;;;;5004338;28;19926;-70
2023/08/03 13:48:43;;;;;;;;;;;;;;;;;;5000904;28;20373;-69
2023/08/03 13:51:10;;;;;;;;;;;;;;;;;;5001038;28;19925;-69
2023/08/03 13:53:37;;;;;;;;;;;;;;;;;;4997250;28;20004;-70
2023/08/03 13:56:04;;;;;;;;;;;;;;;;;;4996389;28;20476;-70
2023/08/03 13:58:31;;;;;;;;;;;;;;;;;;5001199;28;19926;-70
2023/08/03 14:01:01;;;;;;;;;;;;;;;;;;5001051;28;19929;-70
2023/08/03 14:03:28;;;;;;;;;;;;;;;;;;5008408;28;19933;-70
2023/08/03 14:05:55;;;;;;;;;;;;;;;;;;4996066;28;19991;-70
2023/08/03 14:08:22;;;;;;;;;;;;;;;;;;5006024;28;20340;-70
2023/08/03 14:10:49;;;;;;;;;;;;;;;;;;4997004;28;19933;-71
2023/08/03 14:13:16;;;;;;;;;;;;;;;;;;4997709;28;19930;-70
2023/08/03 14:15:43;;;;;;;;;;;;;;;;;;5004180;28;19925;-70
2023/08/03 14:18:11;;;;;;;;;;;;;;;;;;5000533;28;19980;-70
2023/08/03 14:20:38;;;;;;;;;;;;;;;;;;4998995;28;20604;-71
2023/08/03 14:23:05;;;;;;;;;;;;;;;;;;5001226;28;19991;-71
2023/08/03 14:25:32;;;;;;;;;;;;;;;;;;4997918;28;19988;-69
2023/08/03 14:27:59;;;;;;;;;;;;;;;;;;5000075;28;19940;-68
2023/08/03 14:30:26;;;;;;;;;;;;;;;;;;4997959;28;20403;-66
2023/08/03 14:32:53;;;;;;;;;;;;;;;;;;4997594;28;19926;-68
2023/08/03 14:35:20;;;;;;;;;;;;;;;;;;5004907;28;19929;-68
2023/08/03 14:37:47;;;;;;;;;;;;;;;;;;4998651;28;20533;-69
2023/08/03 14:40:14;;;;;;;;;;;;;;;;;;5011037;28;19925;-69
2023/08/03 14:42:45;;;;;;;;;;;;;;;;;;5014120;28;19929;-69
2023/08/03 14:45:12;;;;;;;;;;;;;;;;;;5008563;28;19926;-70
2023/08/03 14:47:39;;;;;;;;;;;;;;;;;;5014225;28;19925;-68
2023/08/03 14:50:06;;;;;;;;;;;;;;;;;;4998881;28;19930;-69
2023/08/03 14:52:33;;;;;;;;;;;;;;;;;;5003331;28;19925;-70
2023/08/03 14:55:00;;;;;;;;;;;;;;;;;;5004447;28;20049;-71
2023/08/03 14:57:27;;;;;;;;;;;;;;;;;;5011544;28;19957;-70
2023/08/03 14:59:54;;;;;;;;;;;;;;;;;;5009961;28;20360;-70
2023/08/03 15:02:21;;;;;;;;;;;;;;;;;;5002621;28;20435;-70
2023/08/03 15:04:49;;;;;;;;;;;;;;;;;;5004353;28;19987;-70
2023/08/03 15:07:16;;;;;;;;;;;;;;;;;;5004053;28;19981;-70
2023/08/03 15:09:44;;;;;;;;;;;;;;;;;;5005703;28;19977;-71
2023/08/03 15:12:11;;;;;;;;;;;;;;;;;;5003158;28;19972;-70
2023/08/03 15:14:38;;;;;;;;;;;;;;;;;;5002562;28;19925;-71
2023/08/03 15:17:05;;;;;;;;;;;;;;;;;;5005827;28;19926;-67
2023/08/03 15:19:32;;;;;;;;;;;;;;;;;;5004342;28;19925;-71
2023/08/03 15:21:59;;;;;;;;;;;;;;;;;;5007117;28;19938;-69
2023/08/03 15:24:26;;;;;;;;;;;;;;;;;;5009839;28;20385;-68
2023/08/03 15:26:53;;;;;;;;;;;;;;;;;;5004321;28;20020;-69
2023/08/03 15:29:20;;;;;;;;;;;;;;;;;;5005114;28;19925;-69
2023/08/03 15:31:47;;;;;;;;;;;;;;;;;;5003823;28;20375;-69
2023/08/03 15:34:14;;;;;;;;;;;;;;;;;;5008445;28;19961;-67
2023/08/03 15:36:41;;;;;;;;;;;;;;;;;;5004608;28;19929;-68
2023/08/03 15:39:08;;;;;;;;;;;;;;;;;;5002016;28;19936;-67
2023/08/03 15:41:35;;;;;;;;;;;;;;;;;;5003635;28;19983;-68
2023/08/03 15:44:02;;;;;;;;;;;;;;;;;;5003919;28;20032;-69
2023/08/03 15:46:31;;;;;;;;;;;;;;;;;;4997587;28;19992;-68
2023/08/03 15:48:58;;;;;;;;;;;;;;;;;;5002564;28;19929;-68
2023/08/03 15:51:25;;;;;;;;;;;;;;;;;;5009955;28;19925;-69
2023/08/03 15:53:52;;;;;;;;;;;;;;;;;;5012259;28;20033;-69
2023/08/03 15:56:19;;;;;;;;;;;;;;;;;;5011099;28;19957;-68
2023/08/03 15:58:46;;;;;;;;;;;;;;;;;;5000578;28;19948;-68
2023/08/03 16:01:13;;;;;;;;;;;;;;;;;;5002770;28;19929;-68
2023/08/03 16:03:40;;;;;;;;;;;;;;;;;;5007302;28;19987;-68
2023/08/03 16:06:13;;;;;;;;;;;;;;;;;;5011362;28;20380;-68
2023/08/03 16:08:40;;;;;;;;;;;;;;;;;;5008596;28;20086;-67
2023/08/03 16:11:07;;;;;;;;;;;;;;;;;;5006342;28;19937;-68
2023/08/03 16:13:34;;;;;;;;;;;;;;;;;;5012502;28;19932;-67
2023/08/03 16:16:01;;;;;;;;;;;;;;;;;;5012027;28;19952;-68
2023/08/03 16:18:28;;;;;;;;;;;;;;;;;;5009429;28;20016;-68
2023/08/03 16:20:55;;;;;;;;;;;;;;;;;;5008489;28;19929;-68
2023/08/03 16:23:22;;;;;;;;;;;;;;;;;;5011357;28;19929;-67
2023/08/03 16:25:49;;;;;;;;;;;;;;;;;;5009620;28;19932;-67
2023/08/03 16:28:16;;;;;;;;;;;;;;;;;;5009087;28;19926;-68
2023/08/03 16:30:43;;;;;;;;;;;;;;;;;;5005124;28;20527;-67
2023/08/03 16:33:10;;;;;;;;;;;;;;;;;;5005415;28;19980;-67
2023/08/03 16:35:37;;;;;;;;;;;;;;;;;;4999341;28;19934;-67
2023/08/03 16:38:04;;;;;;;;;;;;;;;;;;5006486;28;20420;-69
2023/08/03 16:40:31;;;;;;;;;;;;;;;;;;4999489;28;19944;-67
2023/08/03 16:42:58;;;;;;;;;;;;;;;;;;5009826;28;19941;-67
2023/08/03 16:45:25;;;;;;;;;;;;;;;;;;5032406;28;19925;-67
2023/08/03 16:47:52;;;;;;;;;;;;;;;;;;5012056;28;19926;-67